createdAt,value
2017-09-11T00:02:24.873Z,73.40
2017-09-11T00:04:53.295Z,72.80
2017-09-11T00:07:21.649Z,75.00
2017-09-11T00:09:50.023Z,75.50
2017-09-11T00:12:18.361Z,76.20
2017-09-11T00:14:46.697Z,76.70
2017-09-11T00:17:14.991Z,77.80
2017-09-11T00:19:43.287Z,79.00
2017-09-11T00:22:11.606Z,79.20
2017-09-11T00:24:39.905Z,80.00
2017-09-11T00:27:08.233Z,79.90
2017-09-11T00:29:36.581Z,79.80
2017-09-11T00:32:04.896Z,81.10
2017-09-11T00:34:33.224Z,81.90
2017-09-11T00:37:01.521Z,82.00
2017-09-11T00:39:29.819Z,81.70
2017-09-11T00:41:58.136Z,81.90
2017-09-11T00:44:26.458Z,83.00
2017-09-11T00:46:54.797Z,83.10
2017-09-11T00:49:23.113Z,84.10
2017-09-11T00:51:51.421Z,84.40
2017-09-11T00:54:19.750Z,83.90
2017-09-11T00:56:48.049Z,83.20
2017-09-11T00:59:16.349Z,83.10
2017-09-11T01:01:44.669Z,83.70
2017-09-11T01:04:12.999Z,84.00
2017-09-11T01:06:41.303Z,83.90
2017-09-11T01:09:09.642Z,83.60
2017-09-11T01:11:37.940Z,83.20
2017-09-11T01:14:06.268Z,83.90
2017-09-11T01:16:34.558Z,83.50
2017-09-11T01:19:02.902Z,82.80
2017-09-11T01:21:31.205Z,83.60
2017-09-11T01:23:59.532Z,83.20
2017-09-11T01:26:27.872Z,83.40
2017-09-11T01:28:56.182Z,83.70
2017-09-11T01:31:24.504Z,83.80
2017-09-11T01:33:52.801Z,84.10
2017-09-11T01:36:21.136Z,84.10
2017-09-11T01:38:49.427Z,84.60
2017-09-11T01:41:17.718Z,84.70
2017-09-11T01:43:46.037Z,84.60
2017-09-11T01:46:14.358Z,84.90
2017-09-11T01:48:42.704Z,84.80
2017-09-11T01:51:11.084Z,83.90
2017-09-11T01:53:39.384Z,82.60
2017-09-11T01:56:07.744Z,82.70
2017-09-11T01:58:36.052Z,80.10
2017-09-11T02:01:04.373Z,79.50
2017-09-11T02:03:32.663Z,79.20
2017-09-11T02:06:01.001Z,78.10
2017-09-11T02:08:29.295Z,78.10
2017-09-11T02:10:57.608Z,77.40
2017-09-11T02:13:25.943Z,77.50
2017-09-11T02:15:54.244Z,78.10
2017-09-11T02:18:22.554Z,79.10
2017-09-11T02:20:50.881Z,79.00
2017-09-11T02:23:19.187Z,79.10
2017-09-11T02:25:47.516Z,78.80
2017-09-11T02:28:15.835Z,79.80
2017-09-11T02:30:44.135Z,79.10
2017-09-11T02:33:12.494Z,80.40
2017-09-11T02:35:40.792Z,80.70
2017-09-11T02:38:09.122Z,80.90
2017-09-11T02:40:37.660Z,80.90
2017-09-11T02:43:06.025Z,81.50
2017-09-11T02:45:34.345Z,82.10
2017-09-11T02:48:02.743Z,83.90
2017-09-11T02:50:31.036Z,82.10
2017-09-11T02:52:59.357Z,81.80
2017-09-11T02:55:27.795Z,82.20
2017-09-11T02:57:56.128Z,81.40
2017-09-11T03:00:24.462Z,81.30
2017-09-11T03:02:52.782Z,83.10
2017-09-11T03:05:21.100Z,80.20
2017-09-11T03:07:49.465Z,81.40
2017-09-11T03:10:17.795Z,81.00
2017-09-11T03:12:46.111Z,80.70
2017-09-11T03:15:14.426Z,79.90
2017-09-11T03:17:42.988Z,79.50
2017-09-11T03:20:11.348Z,78.10
2017-09-11T03:22:39.665Z,77.70
2017-09-11T03:25:07.995Z,78.00
2017-09-11T03:27:36.299Z,76.20
2017-09-11T03:30:04.657Z,74.90
2017-09-11T03:32:32.993Z,74.50
2017-09-11T03:35:01.358Z,73.20
2017-09-11T03:37:29.719Z,73.00
2017-09-11T03:39:58.059Z,72.50
2017-09-11T03:42:26.437Z,72.30
2017-09-11T03:44:55.502Z,72.10
2017-09-11T03:47:23.844Z,72.00
2017-09-11T03:49:52.157Z,72.00
2017-09-11T03:52:20.480Z,71.50
2017-09-11T03:54:48.767Z,71.70
2017-09-11T03:57:17.107Z,70.40
2017-09-11T03:59:46.138Z,70.20
2017-09-11T04:02:14.436Z,69.00
2017-09-11T04:04:42.813Z,69.40
2017-09-11T04:07:11.137Z,68.30
2017-09-11T04:09:39.430Z,68.50
2017-09-11T04:12:07.755Z,68.20
2017-09-11T04:14:36.076Z,68.20
2017-09-11T04:17:04.369Z,68.30
2017-09-11T04:19:32.690Z,68.20
2017-09-11T04:22:01.019Z,68.90
2017-09-11T04:24:29.316Z,68.90
2017-09-11T04:26:57.643Z,69.30
2017-09-11T04:29:25.985Z,70.00
2017-09-11T04:31:55.149Z,68.60
2017-09-11T04:34:23.695Z,69.20
2017-09-11T04:36:52.065Z,69.10
2017-09-11T04:39:20.473Z,69.20
2017-09-11T04:41:48.793Z,69.60
2017-09-11T04:44:17.176Z,69.50
2017-09-11T04:46:45.512Z,69.50
2017-09-11T04:49:13.976Z,69.50
2017-09-11T04:51:42.601Z,69.90
2017-09-11T04:54:10.911Z,70.30
2017-09-11T04:56:39.317Z,70.40
2017-09-11T04:59:07.641Z,70.70
2017-09-11T05:01:35.929Z,71.80
2017-09-11T05:04:04.259Z,72.10
2017-09-11T05:06:32.818Z,73.00
2017-09-11T05:09:01.145Z,73.90
2017-09-11T05:11:29.473Z,73.80
2017-09-11T05:13:57.779Z,74.10
2017-09-11T05:16:26.298Z,73.80
2017-09-11T05:18:54.593Z,73.60
2017-09-11T05:21:22.922Z,74.70
2017-09-11T05:23:51.236Z,77.10
2017-09-11T05:26:19.665Z,81.60
2017-09-11T05:28:47.979Z,84.90
2017-09-11T05:31:16.268Z,87.80
2017-09-11T05:33:44.630Z,88.40
2017-09-11T05:36:12.940Z,87.00
2017-09-11T05:38:41.259Z,90.40
2017-09-11T05:41:09.599Z,92.50
2017-09-11T05:43:37.929Z,94.70
2017-09-11T05:46:06.261Z,97.60
2017-09-11T05:48:34.596Z,99.20
2017-09-11T05:51:02.891Z,99.90
2017-09-11T05:53:31.200Z,99.90
2017-09-11T05:55:59.559Z,99.90
2017-09-11T05:58:27.957Z,99.90
2017-09-11T06:00:57.069Z,99.90
2017-09-11T06:03:25.380Z,99.90
2017-09-11T06:05:54.529Z,99.90
2017-09-11T06:08:34.509Z,99.90
2017-09-11T06:11:02.812Z,99.90
2017-09-11T06:13:31.104Z,99.90
2017-09-11T06:15:59.433Z,99.90
2017-09-11T06:18:27.777Z,99.90
2017-09-11T06:20:56.093Z,99.90
2017-09-11T06:23:24.425Z,99.90
2017-09-11T06:25:52.773Z,99.90
2017-09-11T06:28:21.099Z,99.90
2017-09-11T06:30:49.475Z,99.90
2017-09-11T06:35:56.936Z,99.90
2017-09-11T06:38:25.254Z,99.90
2017-09-11T06:40:53.636Z,99.90
2017-09-11T06:43:21.924Z,99.90
2017-09-11T06:45:50.229Z,99.90
2017-09-11T06:48:18.555Z,99.90
2017-09-11T06:50:46.877Z,99.90
2017-09-11T06:53:15.200Z,99.90
2017-09-11T06:55:43.516Z,99.90
2017-09-11T06:58:11.809Z,99.90
2017-09-11T07:00:40.138Z,99.90
2017-09-11T07:03:08.453Z,99.90
2017-09-11T07:05:36.753Z,99.90
2017-09-11T07:08:05.929Z,99.90
2017-09-11T07:10:34.244Z,99.90
2017-09-11T07:13:20.449Z,99.90
2017-09-11T07:15:49.507Z,99.90
2017-09-11T07:18:17.801Z,99.90
2017-09-11T07:20:46.148Z,99.90
2017-09-11T07:23:14.446Z,99.90
2017-09-11T07:25:42.793Z,99.90
2017-09-11T07:28:11.138Z,99.90
2017-09-11T07:30:39.522Z,99.90
2017-09-11T07:33:07.890Z,99.90
2017-09-11T07:35:36.180Z,99.90
2017-09-11T07:38:04.508Z,99.90
2017-09-11T07:40:32.829Z,99.90
2017-09-11T07:43:01.136Z,99.90
2017-09-11T07:45:30.249Z,99.90
2017-09-11T07:47:58.560Z,99.90
2017-09-11T07:50:26.852Z,98.90
2017-09-11T07:52:55.187Z,96.20
2017-09-11T07:55:23.545Z,95.60
2017-09-11T07:57:51.853Z,96.50
2017-09-11T08:00:20.174Z,97.40
2017-09-11T08:02:48.498Z,99.10
2017-09-11T08:05:16.795Z,99.90
2017-09-11T08:07:45.205Z,99.50
2017-09-11T08:10:13.505Z,99.90
2017-09-11T08:12:41.810Z,99.90
2017-09-11T08:15:10.174Z,99.90
2017-09-11T08:17:38.480Z,99.90
2017-09-11T08:20:06.807Z,99.90
2017-09-11T08:22:35.130Z,99.90
2017-09-11T08:25:03.451Z,99.90
2017-09-11T08:27:31.779Z,99.90
2017-09-11T08:30:00.677Z,99.90
2017-09-11T08:32:29.036Z,99.90
2017-09-11T08:34:57.347Z,99.90
2017-09-11T08:37:25.639Z,99.90
2017-09-11T08:39:53.971Z,99.90
2017-09-11T08:42:22.295Z,99.90
2017-09-11T08:44:50.634Z,99.90
2017-09-11T08:47:18.973Z,99.90
2017-09-11T08:49:47.365Z,99.90
2017-09-11T08:52:15.693Z,99.90
2017-09-11T08:54:44.020Z,99.90
2017-09-11T08:57:12.361Z,99.90
2017-09-11T08:59:40.665Z,99.90
2017-09-11T09:02:08.986Z,99.90
2017-09-11T09:04:37.300Z,99.90
2017-09-11T09:07:05.618Z,99.90
2017-09-11T09:09:34.619Z,99.90
2017-09-11T09:12:02.940Z,99.90
2017-09-11T09:14:31.276Z,99.90
2017-09-11T09:16:59.647Z,99.10
2017-09-11T09:19:27.962Z,99.00
2017-09-11T09:21:56.273Z,99.90
2017-09-11T09:24:52.389Z,99.50
2017-09-11T09:27:20.703Z,99.20
2017-09-11T09:29:49.043Z,99.40
2017-09-11T09:32:17.334Z,99.90
2017-09-11T09:34:45.657Z,99.10
2017-09-11T09:37:13.959Z,98.30
2017-09-11T09:39:42.293Z,97.90
2017-09-11T09:42:10.584Z,96.40
2017-09-11T09:44:39.112Z,95.40
2017-09-11T09:47:07.440Z,93.60
2017-09-11T09:49:35.861Z,94.60
2017-09-11T09:52:05.141Z,94.30
2017-09-11T09:54:33.460Z,93.40
2017-09-11T09:57:01.761Z,96.20
2017-09-11T09:59:30.069Z,96.60
2017-09-11T10:01:58.397Z,98.10
2017-09-11T10:04:26.694Z,99.80
2017-09-11T10:06:55.071Z,99.90
2017-09-11T10:09:23.372Z,99.90
2017-09-11T10:11:51.763Z,99.90
2017-09-11T10:14:20.093Z,99.90
2017-09-11T10:16:48.418Z,99.90
2017-09-11T10:19:16.710Z,99.90
2017-09-11T10:21:45.042Z,99.90
2017-09-11T10:24:13.389Z,99.90
2017-09-11T10:26:41.694Z,99.90
2017-09-11T10:29:10.013Z,99.90
2017-09-11T10:31:38.343Z,99.90
2017-09-11T10:34:06.664Z,99.90
2017-09-11T10:36:35.176Z,99.90
2017-09-11T10:39:03.512Z,99.90
2017-09-11T10:41:31.818Z,99.90
2017-09-11T10:44:00.148Z,99.90
2017-09-11T10:46:28.441Z,99.90
2017-09-11T10:48:56.749Z,99.90
2017-09-11T10:51:25.085Z,99.90
2017-09-11T10:53:53.427Z,98.00
2017-09-11T10:56:21.724Z,97.50
2017-09-11T10:58:50.109Z,96.00
2017-09-11T11:01:18.470Z,95.20
2017-09-11T11:03:46.845Z,91.40
2017-09-11T11:06:15.140Z,90.40
2017-09-11T11:08:43.479Z,85.20
2017-09-11T11:11:11.819Z,84.00
2017-09-11T11:13:40.139Z,87.20
2017-09-11T11:16:08.433Z,86.80
2017-09-11T11:18:36.768Z,84.30
2017-09-11T11:21:05.727Z,87.80
2017-09-11T11:23:34.117Z,86.90
2017-09-11T11:26:02.460Z,88.50
2017-09-11T11:28:30.775Z,89.90
2017-09-11T11:30:59.100Z,91.80
2017-09-11T11:33:27.432Z,88.50
2017-09-11T11:35:55.772Z,84.00
2017-09-11T11:38:24.089Z,84.90
2017-09-11T11:40:52.410Z,82.50
2017-09-11T11:43:20.701Z,81.80
2017-09-11T11:45:50.036Z,82.00
2017-09-11T11:48:18.371Z,80.00
2017-09-11T11:50:46.668Z,80.40
2017-09-11T11:53:15.104Z,80.40
2017-09-11T11:55:43.387Z,83.20
2017-09-11T11:58:12.444Z,84.90
2017-09-11T12:00:41.975Z,82.90
2017-09-11T12:03:10.322Z,83.60
2017-09-11T12:05:38.653Z,81.80
2017-09-11T12:08:06.953Z,77.10
2017-09-11T12:10:35.301Z,81.10
2017-09-11T12:13:03.595Z,81.60
2017-09-11T12:15:31.935Z,81.40
2017-09-11T12:18:01.251Z,78.60
2017-09-11T12:20:29.572Z,72.50
2017-09-11T12:22:57.847Z,73.40
2017-09-11T12:25:27.075Z,67.70
2017-09-11T12:27:55.379Z,69.70
2017-09-11T12:30:23.708Z,64.10
2017-09-11T12:32:53.152Z,65.80
2017-09-11T12:35:21.569Z,63.60
2017-09-11T12:37:50.755Z,61.50
2017-09-11T12:40:19.103Z,57.90
2017-09-11T12:42:48.196Z,56.50
2017-09-11T12:45:16.533Z,55.20
2017-09-11T12:47:45.140Z,54.30
2017-09-11T12:50:13.429Z,54.40
2017-09-11T12:52:41.785Z,54.50
2017-09-11T12:55:10.082Z,58.30
2017-09-11T12:57:38.428Z,58.80
2017-09-11T13:00:06.814Z,54.80
2017-09-11T13:02:35.239Z,55.80
2017-09-11T13:05:03.628Z,54.90
2017-09-11T13:07:32.004Z,52.80
2017-09-11T13:10:00.372Z,50.70
2017-09-11T13:12:28.770Z,51.70
2017-09-11T13:14:57.113Z,49.70
2017-09-11T13:17:25.436Z,51.90
2017-09-11T13:19:53.740Z,51.50
2017-09-11T13:22:22.028Z,51.10
2017-09-11T13:24:50.380Z,51.20
2017-09-11T13:27:18.677Z,51.60
2017-09-11T13:29:46.959Z,54.10
2017-09-11T13:32:15.267Z,55.60
2017-09-11T13:34:43.572Z,60.30
2017-09-11T13:37:11.902Z,61.20
2017-09-11T13:39:40.288Z,65.90
2017-09-11T13:42:08.579Z,65.00
2017-09-11T13:44:37.005Z,64.10
2017-09-11T13:47:08.022Z,62.00
2017-09-11T13:49:36.356Z,61.80
2017-09-11T13:52:04.719Z,63.10
2017-09-11T13:54:33.066Z,60.20
2017-09-11T13:57:01.384Z,60.10
2017-09-11T13:59:30.468Z,60.10
2017-09-11T14:01:58.803Z,59.10
2017-09-11T14:04:27.252Z,57.10
2017-09-11T14:06:55.603Z,56.60
2017-09-11T14:09:23.924Z,54.00
2017-09-11T14:11:52.587Z,54.90
2017-09-11T14:14:20.875Z,53.70
2017-09-11T14:16:49.220Z,49.60
2017-09-11T14:19:17.523Z,49.80
2017-09-11T14:21:45.817Z,50.10
2017-09-11T14:24:14.305Z,48.80
2017-09-11T14:26:43.373Z,48.20
2017-09-11T14:29:11.685Z,48.00
2017-09-11T14:31:40.028Z,47.90
2017-09-11T14:34:08.327Z,45.80
2017-09-11T14:36:36.699Z,47.70
2017-09-11T14:39:05.059Z,47.90
2017-09-11T14:41:33.404Z,47.30
2017-09-11T14:44:01.680Z,48.40
2017-09-11T14:46:29.991Z,46.80
2017-09-11T14:48:58.316Z,45.70
2017-09-11T14:51:26.737Z,47.70
2017-09-11T14:53:55.070Z,46.30
2017-09-11T14:56:23.350Z,45.20
2017-09-11T14:58:51.691Z,45.10
2017-09-11T15:01:19.988Z,45.50
2017-09-11T15:03:48.314Z,44.40
2017-09-11T15:06:16.609Z,42.20
2017-09-11T15:08:44.959Z,42.70
2017-09-11T15:11:13.268Z,42.80
2017-09-11T15:13:41.567Z,42.10
2017-09-11T15:16:09.891Z,41.30
2017-09-11T15:18:38.302Z,41.50
2017-09-11T15:21:06.700Z,41.80
2017-09-11T15:23:35.068Z,41.90
2017-09-11T15:26:04.008Z,42.00
2017-09-11T15:28:32.374Z,41.50
2017-09-11T15:31:00.829Z,41.80
2017-09-11T15:33:29.199Z,43.40
2017-09-11T15:35:58.097Z,43.40
2017-09-11T15:38:26.441Z,45.60
2017-09-11T15:40:54.731Z,47.10
2017-09-11T15:43:23.066Z,48.70
2017-09-11T15:45:51.413Z,50.30
2017-09-11T15:48:19.695Z,50.80
2017-09-11T15:50:48.083Z,51.50
2017-09-11T15:53:16.363Z,51.90
2017-09-11T15:55:44.645Z,52.20
2017-09-11T15:58:14.552Z,52.00
2017-09-11T16:00:42.843Z,51.40
2017-09-11T16:03:11.544Z,51.40
2017-09-11T16:05:39.888Z,49.00
2017-09-11T16:08:08.167Z,49.00
2017-09-11T16:10:36.460Z,49.60
2017-09-11T16:13:04.803Z,50.70
2017-09-11T16:15:39.522Z,51.60
2017-09-11T16:18:07.832Z,50.50
2017-09-11T16:20:36.104Z,51.00
2017-09-11T16:23:04.416Z,52.90
2017-09-11T16:25:32.704Z,53.60
2017-09-11T16:28:01.027Z,54.20
2017-09-11T16:30:29.327Z,54.90
2017-09-11T16:32:57.698Z,55.90
2017-09-11T16:35:26.884Z,63.50
2017-09-11T16:37:55.179Z,64.20
2017-09-11T16:40:23.492Z,67.40
2017-09-11T16:42:52.704Z,69.00
2017-09-11T16:45:21.019Z,67.60
2017-09-11T16:47:50.199Z,69.30
2017-09-11T16:50:18.487Z,68.40
2017-09-11T16:52:46.826Z,68.50
2017-09-11T16:55:15.415Z,68.40
2017-09-11T16:57:43.702Z,68.30
2017-09-11T17:00:13.254Z,69.40
2017-09-11T17:02:41.635Z,70.10
2017-09-11T17:05:10.477Z,70.10
2017-09-11T17:07:39.352Z,72.30
2017-09-11T17:10:07.678Z,71.10
2017-09-11T17:12:36.132Z,69.60
2017-09-11T17:15:04.709Z,70.50
2017-09-11T17:17:33.003Z,70.10
2017-09-11T17:20:01.333Z,69.20
2017-09-11T17:22:29.640Z,68.50
2017-09-11T17:24:57.937Z,69.40
2017-09-11T17:27:26.251Z,71.70
2017-09-11T17:29:54.553Z,70.60
2017-09-11T17:32:22.881Z,70.70
2017-09-11T17:34:52.852Z,71.70
2017-09-11T17:39:56.042Z,74.60
2017-09-11T17:42:31.084Z,74.10
2017-09-11T17:44:59.492Z,72.70
2017-09-11T17:47:27.812Z,74.40
2017-09-11T17:49:56.138Z,74.10
2017-09-11T17:52:24.429Z,75.20
2017-09-11T17:54:52.790Z,73.50
2017-09-11T17:57:21.076Z,74.50
2017-09-11T17:59:49.379Z,75.50
2017-09-11T18:02:17.732Z,76.70
2017-09-11T18:04:46.142Z,75.50
2017-09-11T18:07:14.479Z,75.60
2017-09-11T18:09:42.768Z,75.90
2017-09-11T18:12:11.089Z,78.00
2017-09-11T18:14:39.412Z,77.80
2017-09-11T18:17:07.760Z,80.90
2017-09-11T18:19:36.087Z,78.10
2017-09-11T18:22:04.402Z,78.30
2017-09-11T18:24:32.735Z,80.80
2017-09-11T18:27:01.045Z,79.70
2017-09-11T18:29:29.353Z,78.10
2017-09-11T18:31:57.668Z,78.60
2017-09-11T18:34:26.010Z,79.40
2017-09-11T18:36:54.297Z,78.50
2017-09-11T18:39:22.610Z,79.10
2017-09-11T18:41:50.897Z,79.90
2017-09-11T18:44:19.257Z,79.60
2017-09-11T18:46:47.635Z,80.00
2017-09-11T18:49:15.937Z,79.20
2017-09-11T18:51:44.218Z,79.50
2017-09-11T18:54:12.537Z,81.40
2017-09-11T18:56:40.904Z,81.40
2017-09-11T18:59:09.323Z,82.10
2017-09-11T19:01:37.657Z,80.60
2017-09-11T19:04:05.958Z,80.50
2017-09-11T19:06:34.257Z,79.60
2017-09-11T19:09:02.581Z,79.20
2017-09-11T19:11:30.881Z,78.40
2017-09-11T19:13:59.181Z,76.90
2017-09-11T19:16:27.522Z,75.40
2017-09-11T19:18:55.829Z,73.70
2017-09-11T19:21:24.178Z,73.50
2017-09-11T19:23:52.489Z,73.60
2017-09-11T19:26:20.849Z,72.50
2017-09-11T19:28:49.177Z,72.30
2017-09-11T19:31:17.486Z,72.80
2017-09-11T19:33:45.818Z,73.70
2017-09-11T19:36:14.122Z,74.40
2017-09-11T19:38:42.420Z,75.60
2017-09-11T19:41:10.881Z,76.10
2017-09-11T19:43:39.198Z,76.50
2017-09-11T19:46:07.602Z,76.70
2017-09-11T19:48:35.930Z,76.80
2017-09-11T19:51:04.257Z,77.10
2017-09-11T19:53:32.585Z,77.20
2017-09-11T19:56:00.903Z,77.40
2017-09-11T19:58:29.213Z,77.90
2017-09-11T20:00:57.566Z,78.30
2017-09-11T20:03:25.850Z,78.40
2017-09-11T20:05:54.176Z,79.10
2017-09-11T20:08:22.466Z,79.70
2017-09-11T20:10:50.812Z,80.10
2017-09-11T20:13:19.098Z,80.10
2017-09-11T20:15:47.433Z,80.20
2017-09-11T20:18:15.740Z,80.00
2017-09-11T20:20:44.048Z,78.90
2017-09-11T20:23:12.373Z,79.00
2017-09-11T20:25:40.774Z,78.00
2017-09-11T20:28:09.075Z,78.10
2017-09-11T20:30:37.423Z,77.80
2017-09-11T20:33:05.730Z,77.80
2017-09-11T20:35:34.069Z,77.40
2017-09-11T20:38:02.402Z,77.30
2017-09-11T20:40:31.554Z,77.20
2017-09-11T20:42:59.870Z,76.70
2017-09-11T20:45:28.165Z,75.80
2017-09-11T20:47:56.509Z,75.60
2017-09-11T20:50:24.792Z,75.30
2017-09-11T20:52:53.093Z,74.70
2017-09-11T20:55:21.440Z,73.70
2017-09-11T20:57:49.861Z,73.30
2017-09-11T21:00:18.234Z,72.70
2017-09-11T21:02:46.563Z,72.30
2017-09-11T21:05:14.850Z,72.10
2017-09-11T21:07:43.214Z,71.70
2017-09-11T21:10:11.501Z,71.50
2017-09-11T21:12:39.793Z,71.60
2017-09-11T21:15:08.131Z,71.90
2017-09-11T21:17:36.416Z,71.10
2017-09-11T21:20:04.761Z,70.70
2017-09-11T21:22:33.069Z,70.60
2017-09-11T21:25:01.359Z,70.20
2017-09-11T21:27:29.666Z,70.70
2017-09-11T21:29:57.956Z,70.00
2017-09-11T21:32:26.297Z,70.00
2017-09-11T21:34:54.577Z,70.40
2017-09-11T21:37:22.929Z,70.60
2017-09-11T21:39:51.241Z,70.60
2017-09-11T21:42:19.559Z,70.40
2017-09-11T21:44:48.116Z,70.90
2017-09-11T21:47:16.564Z,71.20
2017-09-11T21:49:44.855Z,71.20
2017-09-11T21:52:13.161Z,71.40
2017-09-11T21:54:41.445Z,71.10
2017-09-11T21:57:09.753Z,72.10
2017-09-11T21:59:38.227Z,71.90
2017-09-11T22:02:06.544Z,71.60
2017-09-11T22:04:34.841Z,71.90
2017-09-11T22:07:03.187Z,72.10
2017-09-11T22:09:31.475Z,72.10
2017-09-11T22:11:59.858Z,72.20
2017-09-11T22:14:28.181Z,72.50
2017-09-11T22:16:56.536Z,72.70
2017-09-11T22:19:24.821Z,72.80
2017-09-11T22:21:53.111Z,72.90
2017-09-11T22:24:21.440Z,72.90
2017-09-11T22:26:49.726Z,73.50
2017-09-11T22:29:18.058Z,73.20
2017-09-11T22:31:46.545Z,73.60
2017-09-11T22:34:14.852Z,73.50
2017-09-11T22:36:43.131Z,74.00
2017-09-11T22:39:11.443Z,74.20
2017-09-11T22:41:39.731Z,74.20
2017-09-11T22:44:08.140Z,74.50
2017-09-11T22:46:36.468Z,74.10
2017-09-11T22:49:04.789Z,74.50
2017-09-11T22:51:33.095Z,74.30
2017-09-11T22:54:01.438Z,74.00
2017-09-11T22:56:29.765Z,74.10
2017-09-11T22:58:58.049Z,74.00
2017-09-11T23:01:26.330Z,74.00
2017-09-11T23:03:54.685Z,74.40
2017-09-11T23:06:22.969Z,74.00
2017-09-11T23:08:51.279Z,73.80
2017-09-11T23:11:19.578Z,73.30
2017-09-11T23:13:47.901Z,73.50
2017-09-11T23:16:16.202Z,73.40
2017-09-11T23:18:44.494Z,73.40
2017-09-11T23:21:12.822Z,73.30
2017-09-11T23:23:41.111Z,72.90
2017-09-11T23:26:09.437Z,72.80
2017-09-11T23:28:37.773Z,72.80
2017-09-11T23:31:06.062Z,72.10
2017-09-11T23:33:34.387Z,71.70
2017-09-11T23:36:02.704Z,71.50
2017-09-11T23:38:31.448Z,71.70
2017-09-11T23:40:59.805Z,72.00
2017-09-11T23:43:28.109Z,71.90
2017-09-11T23:45:56.416Z,71.60
2017-09-11T23:48:24.705Z,71.40
2017-09-11T23:50:53.033Z,71.90
2017-09-11T23:53:21.325Z,71.50
2017-09-11T23:55:49.639Z,71.60
2017-09-11T23:58:17.941Z,71.70
